Ceață/nori stratus de joasă altitudine
Ceață/nori stratus de joasă altitudine
Ceață/nori stratus de joasă altitudine
Parțial înnorat
Parțial înnorat
Parțial înnorat
Cer variabil
(°C)
-3°
-3°
-3°
-2°
-2°
-1°
(°C)
-7°
-7°
-6°
-7°
-6°
-5°
-4°
SSE
SSE
SSE
SSE
SSE
SSE
SSE
(km/h)
4-7
5-8
4-8
8-12
8-10
7-10
6-11
(mm)
0
0
0
0
0
0
0
(%)
0
0
0
0
0
0
0

Elevația soarelui

/ -10.1°
sun-icon
UV 0
08:17
16:10
Al doilea pătrar (195°)
16:36
09:59

METAR pentru Bordenau (ETNW)

Ora Condiții Temperatură/
Punctul de rouă
Vânt Vizibilitate Vremea Nori Presiune Schimbă Brut
IFR -3°C / -3°C 150º 1kt 4000m in the Vicinity Fog shallow Fog Vertical Visibility of 0ft. 1006 Becoming: Recent . ETNW 090520Z 15001KT 4000 VCFG MIFG SCT026 M03/M03 Q1006 GRN GRN BECMG RED
MVFR -3°C / -3°C 180º 1kt 6000m shallow Fog Vertical Visibility of 0ft. 1006 - ETNW 090420Z 18001KT 6000 MIFG SCT041 M03/M03 Q1006 WHT
MVFR -3°C / -3°C 90º 2kt 8000m shallow Fog Vertical Visibility of 0ft.
Scattered Clouds 4500ft
1006 - ETNW 090340Z 09002KT 8000 MIFG SCT023 SCT045 M03/M03 Q1006 BLU+
MVFR -2°C / -2°C 120º 2kt 8000m shallow Fog Vertical Visibility of 0ft. 1007 - ETNW 090320Z 12002KT 8000 MIFG BKN023 M02/M02 Q1007 WHT
IFR -2°C / -2°C 120º 2kt 4000m shallow Fog Mist Vertical Visibility of 0ft. 1007 - ETNW 090312Z 12002KT 4000 MIFG BR BKN024 M02/M02 Q1007 GRN
-3°C / -3°C 180º 4kt 500m freezing Fog Vertical Visibility of 0ft. 1007 - ETNW 090220Z 18004KT 0500 FZFG M03/M03 Q1007 RED
LIFR -3°C / -3°C 190º 4kt 190m freezing Fog Vertical Visibility of 0ft. 1007 - ETNW 090120Z 19004KT 0200 FZFG FEW000 M03/M03 Q1007 RED
LIFR -2°C / -2°C 110º 2kt 600m freezing Fog Vertical Visibility of 0ft. 1007 - ETNW 090020Z 11002KT 0600 FZFG FEW000 M02/M02 Q1007 RED
LIFR -3°C / -3°C 220º 5kt 800m freezing Fog Vertical Visibility of 0ft. 1007 - ETNW 082320Z 22005KT 0800 FZFG FEW035 M03/M03 Q1007 AMB
-2°C / -2°C 240º 3kt 400m freezing Fog Vertical Visibility of 0ft. 1007 - ETNW 082220Z 24003KT 0400 FZFG M02/M02 Q1007 RED
LIFR -2°C / -2°C variable 0kt 600m freezing Fog Vertical Visibility of 0ft. 1007 - ETNW 082145Z 00000KT 0600 FZFG FEW035 M02/M02 Q1007 RED
IFR -1°C / -1°C variable 0kt 4000m shallow Fog Mist Vertical Visibility of 0ft. 1007 - ETNW 082120Z 00000KT 4000 MIFG BR FEW035 M01/M01 Q1007 GRN
MVFR -1°C / -1°C variable 0kt 6000m shallow Fog Vertical Visibility of 0ft. 1007 - ETNW 082110Z 00000KT 6000 MIFG FEW035 M01/M01 Q1007 WHT
VFR 0°C / 0°C 250º 3kt >10km shallow Fog Vertical Visibility of 0ft. 1006 - ETNW 082020Z 25003KT 9999 MIFG SCT035 00/00 Q1006 BLU+
VFR 1°C / 1°C 280º 2kt >10km - Broken Clouds 3800ft 1006 - ETNW 081920Z 28002KT 9999 BKN038 01/01 Q1006 BLU
VFR 2°C / 1°C 260º 5kt >10km - Few Clouds 1200ft
Broken Clouds 4000ft
1006 - ETNW 081820Z 26005KT 9999 FEW012 BKN040 02/01 Q1006 BLU
VFR 2°C / 1°C 250º 4kt >10km - Few Clouds 1500ft
Scattered Clouds 2000ft
1006 - ETNW 081720Z 25004KT 9999 FEW015 SCT020 02/01 Q1006 BLU+FCST CNL
VFR 2°C / 1°C 260º 3kt >10km - Few Clouds 1200ft
Scattered Clouds 11000ft
1006 Temporary: Hail . ETNW 081620Z 26003KT 9999 FEW012 SCT110 02/01 Q1006 BLU+BLU TEMPO GRN
VFR 2°C / 2°C 260º 4kt >10km - Few Clouds 1000ft
Broken Clouds 11000ft
1005 Temporary: Hail . ETNW 081520Z 26004KT 9999 FEW010 BKN110 02/02 Q1005 BLU BLU TEMPO GRN
VFR 3°C / 2°C 260º 5kt >10km - Scattered Clouds 1000ft
Broken Clouds 11000ft
1005 Temporary: Hail . ETNW 081420Z 26005KT 9999 SCT010 BKN110 03/02 Q1005 BLU BLU TEMPO GRN
VFR 3°C / 2°C 260º 6kt >10km - Scattered Clouds 1000ft
Broken Clouds 11000ft
1005 Temporary: Hail . ETNW 081400Z 26006KT 9999 SCT010 BKN110 03/02 Q1005 BLU BLU TEMPO GRN
MVFR 3°C / 2°C 280º 6kt >10km - Broken Clouds 1000ft
Broken Clouds 11000ft
1005 Temporary: Hail . ETNW 081345Z 28006KT 9999 BKN010 BKN110 03/02 Q1005 GRN BLU TEMPO GRN
VFR 3°C / 2°C 280º 7kt >10km - Scattered Clouds 1200ft
Broken Clouds 11000ft
1005 - ETNW 081320Z 28007KT 9999 SCT012 BKN110 03/02 Q1005 BLU BLU
MVFR 4°C / 2°C 260º 7kt >10km - Few Clouds 900ft
Broken Clouds 1200ft
Broken Clouds 10000ft
1005 Temporary: YLO ETNW 081220Z 26007KT 9999 FEW009 BKN012 BKN100 04/02 Q1005 GRN BLU TEMPO YLO

IFR

-3°C / -3°C

[Mai mult]
Vânt 150º 1kt
Vizibilitate 4000m
Vremea in the Vicinity Fog shallow Fog
Nori Vertical Visibility of 0ft.
Presiune 1006
Schimbă Becoming: Recent .
Brut ETNW 090520Z 15001KT 4000 VCFG MIFG SCT026 M03/M03 Q1006 GRN GRN BECMG RED

MVFR

-3°C / -3°C

[Mai mult]
Vânt 180º 1kt
Vizibilitate 6000m
Vremea shallow Fog
Nori Vertical Visibility of 0ft.
Presiune 1006
Schimbă -
Brut ETNW 090420Z 18001KT 6000 MIFG SCT041 M03/M03 Q1006 WHT

MVFR

-3°C / -3°C

[Mai mult]
Vânt 90º 2kt
Vizibilitate 8000m
Vremea shallow Fog
Nori Vertical Visibility of 0ft.
Scattered Clouds 4500ft
Presiune 1006
Schimbă -
Brut ETNW 090340Z 09002KT 8000 MIFG SCT023 SCT045 M03/M03 Q1006 BLU+

MVFR

-2°C / -2°C

[Mai mult]
Vânt 120º 2kt
Vizibilitate 8000m
Vremea shallow Fog
Nori Vertical Visibility of 0ft.
Presiune 1007
Schimbă -
Brut ETNW 090320Z 12002KT 8000 MIFG BKN023 M02/M02 Q1007 WHT

IFR

-2°C / -2°C

[Mai mult]
Vânt 120º 2kt
Vizibilitate 4000m
Vremea shallow Fog Mist
Nori Vertical Visibility of 0ft.
Presiune 1007
Schimbă -
Brut ETNW 090312Z 12002KT 4000 MIFG BR BKN024 M02/M02 Q1007 GRN

-3°C / -3°C

[Mai mult]
Vânt 180º 4kt
Vizibilitate 500m
Vremea freezing Fog
Nori Vertical Visibility of 0ft.
Presiune 1007
Schimbă -
Brut ETNW 090220Z 18004KT 0500 FZFG M03/M03 Q1007 RED

LIFR

-3°C / -3°C

[Mai mult]
Vânt 190º 4kt
Vizibilitate 190m
Vremea freezing Fog
Nori Vertical Visibility of 0ft.
Presiune 1007
Schimbă -
Brut ETNW 090120Z 19004KT 0200 FZFG FEW000 M03/M03 Q1007 RED

LIFR

-2°C / -2°C

[Mai mult]
Vânt 110º 2kt
Vizibilitate 600m
Vremea freezing Fog
Nori Vertical Visibility of 0ft.
Presiune 1007
Schimbă -
Brut ETNW 090020Z 11002KT 0600 FZFG FEW000 M02/M02 Q1007 RED

LIFR

-3°C / -3°C

[Mai mult]
Vânt 220º 5kt
Vizibilitate 800m
Vremea freezing Fog
Nori Vertical Visibility of 0ft.
Presiune 1007
Schimbă -
Brut ETNW 082320Z 22005KT 0800 FZFG FEW035 M03/M03 Q1007 AMB

-2°C / -2°C

[Mai mult]
Vânt 240º 3kt
Vizibilitate 400m
Vremea freezing Fog
Nori Vertical Visibility of 0ft.
Presiune 1007
Schimbă -
Brut ETNW 082220Z 24003KT 0400 FZFG M02/M02 Q1007 RED

LIFR

-2°C / -2°C

[Mai mult]
Vânt variable 0kt
Vizibilitate 600m
Vremea freezing Fog
Nori Vertical Visibility of 0ft.
Presiune 1007
Schimbă -
Brut ETNW 082145Z 00000KT 0600 FZFG FEW035 M02/M02 Q1007 RED

IFR

-1°C / -1°C

[Mai mult]
Vânt variable 0kt
Vizibilitate 4000m
Vremea shallow Fog Mist
Nori Vertical Visibility of 0ft.
Presiune 1007
Schimbă -
Brut ETNW 082120Z 00000KT 4000 MIFG BR FEW035 M01/M01 Q1007 GRN

MVFR

-1°C / -1°C

[Mai mult]
Vânt variable 0kt
Vizibilitate 6000m
Vremea shallow Fog
Nori Vertical Visibility of 0ft.
Presiune 1007
Schimbă -
Brut ETNW 082110Z 00000KT 6000 MIFG FEW035 M01/M01 Q1007 WHT

VFR

0°C / 0°C

[Mai mult]
Vânt 250º 3kt
Vizibilitate >10km
Vremea shallow Fog
Nori Vertical Visibility of 0ft.
Presiune 1006
Schimbă -
Brut ETNW 082020Z 25003KT 9999 MIFG SCT035 00/00 Q1006 BLU+

VFR

1°C / 1°C

[Mai mult]
Vânt 280º 2kt
Vizibilitate >10km
Vremea -
Nori Broken Clouds 3800ft
Presiune 1006
Schimbă -
Brut ETNW 081920Z 28002KT 9999 BKN038 01/01 Q1006 BLU

VFR

2°C / 1°C

[Mai mult]
Vânt 260º 5kt
Vizibilitate >10km
Vremea -
Nori Few Clouds 1200ft
Broken Clouds 4000ft
Presiune 1006
Schimbă -
Brut ETNW 081820Z 26005KT 9999 FEW012 BKN040 02/01 Q1006 BLU

VFR

2°C / 1°C

[Mai mult]
Vânt 250º 4kt
Vizibilitate >10km
Vremea -
Nori Few Clouds 1500ft
Scattered Clouds 2000ft
Presiune 1006
Schimbă -
Brut ETNW 081720Z 25004KT 9999 FEW015 SCT020 02/01 Q1006 BLU+FCST CNL

VFR

2°C / 1°C

[Mai mult]
Vânt 260º 3kt
Vizibilitate >10km
Vremea -
Nori Few Clouds 1200ft
Scattered Clouds 11000ft
Presiune 1006
Schimbă Temporary: Hail .
Brut ETNW 081620Z 26003KT 9999 FEW012 SCT110 02/01 Q1006 BLU+BLU TEMPO GRN

VFR

2°C / 2°C

[Mai mult]
Vânt 260º 4kt
Vizibilitate >10km
Vremea -
Nori Few Clouds 1000ft
Broken Clouds 11000ft
Presiune 1005
Schimbă Temporary: Hail .
Brut ETNW 081520Z 26004KT 9999 FEW010 BKN110 02/02 Q1005 BLU BLU TEMPO GRN

VFR

3°C / 2°C

[Mai mult]
Vânt 260º 5kt
Vizibilitate >10km
Vremea -
Nori Scattered Clouds 1000ft
Broken Clouds 11000ft
Presiune 1005
Schimbă Temporary: Hail .
Brut ETNW 081420Z 26005KT 9999 SCT010 BKN110 03/02 Q1005 BLU BLU TEMPO GRN

VFR

3°C / 2°C

[Mai mult]
Vânt 260º 6kt
Vizibilitate >10km
Vremea -
Nori Scattered Clouds 1000ft
Broken Clouds 11000ft
Presiune 1005
Schimbă Temporary: Hail .
Brut ETNW 081400Z 26006KT 9999 SCT010 BKN110 03/02 Q1005 BLU BLU TEMPO GRN

MVFR

3°C / 2°C

[Mai mult]
Vânt 280º 6kt
Vizibilitate >10km
Vremea -
Nori Broken Clouds 1000ft
Broken Clouds 11000ft
Presiune 1005
Schimbă Temporary: Hail .
Brut ETNW 081345Z 28006KT 9999 BKN010 BKN110 03/02 Q1005 GRN BLU TEMPO GRN

VFR

3°C / 2°C

[Mai mult]
Vânt 280º 7kt
Vizibilitate >10km
Vremea -
Nori Scattered Clouds 1200ft
Broken Clouds 11000ft
Presiune 1005
Schimbă -
Brut ETNW 081320Z 28007KT 9999 SCT012 BKN110 03/02 Q1005 BLU BLU

MVFR

4°C / 2°C

[Mai mult]
Vânt 260º 7kt
Vizibilitate >10km
Vremea -
Nori Few Clouds 900ft
Broken Clouds 1200ft
Broken Clouds 10000ft
Presiune 1005
Schimbă Temporary: YLO
Brut ETNW 081220Z 26007KT 9999 FEW009 BKN012 BKN100 04/02 Q1005 GRN BLU TEMPO YLO

TAF pentru Bordenau (ETNW)

From till


From till Wind variable 2kt. Visibility 4000m. Mist . Scattered Clouds 2500ft.
Becoming from till Wind variable 1kt. Visibility 193.121m. freezing Fog . Obscured Sky.
Temporarly from till Wind variable 2kt. Visibility 2000m. Mist . Broken Clouds 300ft.
Becoming from till Wind variable 2kt. Visibility 4000m. Mist . Broken Clouds 800ft. Scattered Clouds 2000ft.
Becoming from till Wind 160º 4kt. Visibility 8000m. Few Clouds 800ft. Scattered Clouds 2000ft.
Temporarly from till Wind 170º 4kt. Visibility 6000m. Scattered Clouds 800ft. Broken Clouds 2000ft.
Temporarly from till Wind variable 2kt. Visibility 3000m. Mist . Broken Clouds 700ft. Broken Clouds 2000ft.
Becoming from till Wind variable 2kt. Visibility 498.895m. freezing Fog . Obscured Sky.

Brut: TAF ETNW 090527Z 0906/1006 VRB02KT 4000 BR SCT025 BECMG 0906/0908 VRB01KT 0200 FZFG VVV001 TEMPO 0906/0909 VRB02KT 2000 BR BKN003 BECMG 0909/0911 VRB02KT 4000 BR BKN008 SCT020 BECMG 0911/0913 16004KT 8000 NSW FEW008 SCT020 TEMPO 0913/0917 17004KT 6000 NSW SCT008 BKN020 TEMPO 0917/0921 VRB02KT 3000 BR BKN007 BKN020 BECMG 0921/0923 VRB02KT 0500 FZFG VV001 BY ETGL

rainNOW: Ploaie nowcasting pentru Bordenau și împrejurimi (pe o rază de 25 km)

0.0 mm
0.0 mm
0.0 mm
0.0 mm
0.0 mm
0.0 mm
0.0 mm
0.0 mm
0.0 mm
0.0 mm
0.0 mm
0.0 mm

Radar pentru Bordenau

Burniță
Ușoară
Moderat
Greu
Foarte greu
Grindină

Markerul de locație este plasat în Bordenau. Această animație arată radarul de precipitații pentru ultima oră, precum și o 2h prognoză. Ploaia sau ninsoarea slabă ar putea fi invizibilă pentru radar. Intensitatea precipitațiilor este codificată prin culori, de la albastru deschis la portocaliu.
Copyright 2022 Deutscher Wetterdienst / meteoblue.

Imagini satelitare și ploaie pentru Bordenau, Germania

Markerul cu locaţia este poziţionat pe Bordenau. [Mai mult]

Imaginea satelitară în timp real combină lumina vizibilă din timpul zilei cu radiația cu infraroșu din timpul nopții. Pe timp de noapte, imaginea nu este întunecată, deoarece radiația cu infraroșu poate detecta diferențele de temperatură. Din păcate, norii joși și ceața sunt greu de recunoscut față de temperatura de la sol, din această cauză putând fi invizibili pe timp de noapte. Imaginile satelitare Meteosat pentru Europa sunt actualizate în timp real din 5 în 5 minute. Imaginile GOES-16/GOES-17 (America de Nord și de Sud) și Himawari (Asia) sunt actualizate din 10 în 10 minute.

Precipitațiile sunt estimate pe baza radarelor și a sateliților. Estimările de precipitații de la sateliți sunt mai puțin precise pe timp de noapte decât pe timp de zi. Crucile portocalii marchează locurile unde fulger a fost detectat (over Europa).

Toate drepturile rezervate 2022 EUMETSAT / meteoblue. Datele despre fulgere furnizate de către nowcast.

Mergi sus